Time;durP1;ratioP1;P1;durP2;ratioP2;P2;SDS_P1;SDS_P2;PMS_P1;PMS_P2;Temp;Humidity;BMP_temperature;BMP_pressure;BME280_temperature;BME280_humidity;BME280_pressure;Samples;Min_cycle;Max_cycle;Signal;HPM_P1;HPM_P2
2023/06/21 00:01:41;;;;;;;32.45;29.73;;;26.40;99.00;;;;;;5018310;28;20037;-50
2023/06/21 00:04:27;;;;;;;32.65;29.63;;;25.40;99.90;;;;;;5023005;28;20040;-52
2023/06/21 00:07:13;;;;;;;22.95;20.83;;;25.10;99.90;;;;;;5033131;28;20034;-51
2023/06/21 00:09:59;;;;;;;18.25;16.30;;;24.90;99.90;;;;;;5043430;28;20045;-55
2023/06/21 00:12:46;;;;;;;15.30;13.27;;;24.90;99.90;;;;;;5042827;28;20037;-51
2023/06/21 00:15:32;;;;;;;18.20;12.90;;;24.80;99.90;;;;;;5035953;28;20026;-57
2023/06/21 00:18:18;;;;;;;13.10;11.90;;;24.50;99.90;;;;;;5033333;28;20030;-55
2023/06/21 00:21:04;;;;;;;14.43;12.13;;;24.40;99.90;;;;;;5035216;28;20705;-57
2023/06/21 00:23:49;;;;;;;15.45;12.55;;;24.20;99.90;;;;;;5032629;28;20040;-57
2023/06/21 00:26:35;;;;;;;14.77;12.25;;;24.10;99.90;;;;;;5033990;28;20033;-58
2023/06/21 00:29:21;;;;;;;20.63;13.25;;;23.90;99.90;;;;;;5017752;28;20033;-55
2023/06/21 00:32:07;;;;;;;13.90;11.30;;;23.90;99.90;;;;;;5021028;28;20022;-55
2023/06/21 00:34:53;;;;;;;15.57;11.70;;;23.90;99.90;;;;;;5015271;28;20667;-54
2023/06/21 00:37:39;;;;;;;13.05;11.50;;;23.90;99.90;;;;;;5014271;28;20038;-53
2023/06/21 00:40:25;;;;;;;14.93;11.52;;;24.10;99.90;;;;;;5021013;28;20030;-55
2023/06/21 00:43:12;;;;;;;13.02;11.30;;;24.30;99.90;;;;;;5034208;28;20025;-54
2023/06/21 00:45:58;;;;;;;13.98;12.25;;;24.50;99.90;;;;;;5036906;28;20029;-51
2023/06/21 00:48:44;;;;;;;13.57;11.80;;;24.60;99.90;;;;;;5037431;28;20025;-56
2023/06/21 00:51:32;;;;;;;12.73;11.38;;;24.50;99.90;;;;;;5023523;28;20507;-52
2023/06/21 00:54:19;;;;;;;15.13;12.65;;;24.50;99.90;;;;;;5016127;28;20022;-54
2023/06/21 00:57:06;;;;;;;14.55;12.38;;;24.40;99.90;;;;;;5011845;28;20109;-53
2023/06/21 00:59:53;;;;;;;17.80;13.18;;;24.10;99.90;;;;;;5014134;28;20034;-55
2023/06/21 01:02:39;;;;;;;12.85;11.55;;;23.90;99.90;;;;;;5015269;28;20026;-55
2023/06/21 01:05:26;;;;;;;13.35;12.15;;;23.80;99.90;;;;;;5014110;28;20034;-51
2023/06/21 01:08:30;;;;;;;14.88;12.55;;;23.90;99.90;;;;;;5013835;28;20026;-54
2023/06/21 01:11:34;;;;;;;13.15;11.73;;;24.00;99.90;;;;;;5013478;28;20039;-52
2023/06/21 01:14:29;;;;;;;14.73;12.35;;;24.00;99.90;;;;;;5013428;28;20034;-52
2023/06/21 01:17:16;;;;;;;;;;;24.00;99.90;;;;;;5027478;28;20044;-55
2023/06/21 01:20:13;;;;;;;17.73;12.10;;;23.90;99.90;;;;;;5033653;28;20381;-54
2023/06/21 01:23:14;;;;;;;15.73;12.50;;;23.90;99.90;;;;;;5033294;28;20417;-55
2023/06/21 01:26:06;;;;;;;12.10;10.77;;;24.00;99.90;;;;;;5019047;28;20372;-54
2023/06/21 01:29:10;;;;;;;12.50;11.20;;;24.00;99.90;;;;;;5014233;28;20081;-55
2023/06/21 01:31:57;;;;;;;15.45;12.32;;;24.00;99.90;;;;;;5014240;28;20026;-56
2023/06/21 01:34:44;;;;;;;13.95;11.27;;;24.10;99.90;;;;;;5022088;28;20025;-53
2023/06/21 01:37:30;;;;;;;14.75;11.68;;;24.10;99.90;;;;;;5031714;28;20498;-51
2023/06/21 01:40:17;;;;;;;13.02;11.73;;;24.00;99.90;;;;;;5017084;28;20038;-51
2023/06/21 01:43:03;;;;;;;12.77;11.30;;;23.80;99.90;;;;;;5014016;28;20049;-52
2023/06/21 01:45:50;;;;;;;13.90;12.35;;;23.70;99.90;;;;;;5013245;28;20105;-52
2023/06/21 01:48:37;;;;;;;12.95;11.73;;;23.60;99.90;;;;;;5012774;28;20034;-51
2023/06/21 01:51:24;;;;;;;12.93;11.40;;;23.70;99.90;;;;;;5013151;28;20041;-51
2023/06/21 01:54:10;;;;;;;13.02;11.38;;;23.80;99.90;;;;;;5012672;28;20483;-51
2023/06/21 01:56:59;;;;;;;13.98;11.38;;;23.90;99.90;;;;;;5012293;28;20126;-51
2023/06/21 01:59:45;;;;;;;12.30;11.10;;;23.90;99.90;;;;;;5014509;28;20076;-55
2023/06/21 02:02:33;;;;;;;12.30;11.13;;;24.00;99.90;;;;;;5031740;28;20111;-56
2023/06/21 02:05:20;;;;;;;14.00;12.40;;;24.00;99.90;;;;;;5032811;28;20027;-54
2023/06/21 02:08:15;;;;;;;12.45;11.15;;;24.00;99.90;;;;;;5032440;28;20418;-54
2023/06/21 02:11:02;;;;;;;13.95;12.30;;;24.00;99.90;;;;;;5037114;28;20022;-55
2023/06/21 02:13:48;;;;;;;12.88;11.57;;;23.80;99.90;;;;;;5034715;28;20013;-53
2023/06/21 02:16:34;;;;;;;13.35;11.98;;;23.80;99.90;;;;;;5012948;28;20041;-50
2023/06/21 02:19:22;;;;;;;13.25;11.95;;;23.80;99.90;;;;;;5012542;28;20421;-52
2023/06/21 02:22:09;;;;;;;13.10;11.70;;;23.70;99.90;;;;;;5031379;28;20038;-50
2023/06/21 02:24:56;;;;;;;12.77;11.57;;;23.60;99.90;;;;;;5032299;28;20033;-52
2023/06/21 02:27:42;;;;;;;12.95;11.63;;;23.50;99.90;;;;;;5032635;28;20030;-55
2023/06/21 02:30:29;;;;;;;14.07;11.27;;;23.50;99.90;;;;;;5035332;28;20454;-54
2023/06/21 02:33:15;;;;;;;12.82;11.63;;;23.50;99.90;;;;;;5026038;28;20018;-55
2023/06/21 02:36:01;;;;;;;13.60;12.20;;;23.50;99.90;;;;;;5017692;28;20025;-55
2023/06/21 02:38:47;;;;;;;12.45;11.15;;;23.50;99.90;;;;;;5031687;28;20026;-55
2023/06/21 02:41:33;;;;;;;13.57;12.35;;;23.40;99.90;;;;;;5031205;28;20029;-55
2023/06/21 02:44:19;;;;;;;14.20;12.70;;;23.40;99.90;;;;;;5030321;28;20057;-53
2023/06/21 02:47:05;;;;;;;15.45;12.18;;;23.30;99.90;;;;;;5031661;28;20029;-55
2023/06/21 02:49:51;;;;;;;13.00;11.60;;;23.40;99.90;;;;;;5031517;28;20045;-55
2023/06/21 02:52:37;;;;;;;16.27;12.50;;;23.40;99.90;;;;;;5032300;28;20075;-54
2023/06/21 02:55:22;;;;;;;14.55;13.00;;;23.30;99.90;;;;;;5034227;28;20025;-55
2023/06/21 02:58:08;;;;;;;12.70;11.52;;;23.50;99.90;;;;;;5020156;28;20023;-55
2023/06/21 03:00:54;;;;;;;14.25;12.07;;;23.50;99.90;;;;;;5014336;28;20057;-56
2023/06/21 03:03:44;;;;;;;13.82;12.07;;;23.50;99.90;;;;;;5017055;28;20034;-55
2023/06/21 03:06:30;;;;;;;15.48;12.27;;;23.40;99.90;;;;;;5012105;28;20033;-52
2023/06/21 03:09:16;;;;;;;13.40;11.93;;;23.30;99.90;;;;;;5012426;28;20437;-51
2023/06/21 03:12:08;;;;;;;14.10;11.65;;;23.30;99.90;;;;;;5012559;28;20081;-53
2023/06/21 03:14:54;;;;;;;13.95;12.52;;;23.20;99.90;;;;;;5011669;28;20033;-52
2023/06/21 03:17:40;;;;;;;13.60;11.40;;;23.10;99.90;;;;;;5012636;28;20038;-55
2023/06/21 03:20:26;;;;;;;14.75;13.25;;;23.10;99.90;;;;;;5016910;28;20042;-52
2023/06/21 03:23:12;;;;;;;13.90;12.50;;;23.10;99.90;;;;;;5017233;28;20060;-48
2023/06/21 03:25:58;;;;;;;17.25;12.60;;;23.10;99.90;;;;;;5031700;28;20106;-51
2023/06/21 03:28:44;;;;;;;15.27;12.90;;;22.90;99.90;;;;;;5030275;28;20545;-50
2023/06/21 03:31:30;;;;;;;13.55;12.23;;;22.90;99.90;;;;;;5030734;28;20068;-50
2023/06/21 03:34:16;;;;;;;14.32;12.90;;;23.00;99.90;;;;;;5032516;28;20490;-51
2023/06/21 03:37:02;;;;;;;14.55;12.52;;;22.90;99.90;;;;;;5029865;28;20037;-51
2023/06/21 03:39:48;;;;;;;13.88;12.57;;;23.00;99.90;;;;;;5021154;28;20037;-51
2023/06/21 03:42:34;;;;;;;14.30;12.90;;;23.00;99.90;;;;;;5013804;28;20163;-55
2023/06/21 03:45:20;;;;;;;15.80;13.60;;;23.00;99.90;;;;;;5027235;28;20052;-55
2023/06/21 03:48:06;;;;;;;15.60;13.55;;;23.10;99.90;;;;;;5020608;28;20033;-53
2023/06/21 03:50:52;;;;;;;16.52;13.38;;;23.00;99.90;;;;;;5010723;28;20040;-54
2023/06/21 03:53:38;;;;;;;14.70;13.30;;;23.00;99.90;;;;;;5014809;28;20085;-49
2023/06/21 03:56:24;;;;;;;15.88;14.10;;;23.00;99.90;;;;;;5015906;28;20406;-50
2023/06/21 03:59:10;;;;;;;14.85;13.35;;;22.90;99.90;;;;;;5016053;28;20057;-52
2023/06/21 04:01:55;;;;;;;18.80;13.93;;;22.90;99.90;;;;;;5031650;28;20041;-51
2023/06/21 04:04:41;;;;;;;16.33;13.52;;;22.90;99.90;;;;;;5034147;28;20040;-50
2023/06/21 04:07:27;;;;;;;19.02;14.05;;;22.90;99.90;;;;;;5033924;28;20022;-51
2023/06/21 04:10:14;;;;;;;20.65;13.10;;;23.00;99.90;;;;;;5035704;28;20033;-55
2023/06/21 04:13:00;;;;;;;15.38;13.85;;;22.90;99.90;;;;;;5035393;28;20104;-54
2023/06/21 04:15:46;;;;;;;15.15;12.93;;;22.90;99.90;;;;;;5032833;28;20033;-53
2023/06/21 04:18:32;;;;;;;17.45;12.88;;;23.00;99.90;;;;;;5033343;28;20064;-54
2023/06/21 04:21:18;;;;;;;16.00;13.35;;;23.00;99.90;;;;;;5034995;28;20103;-54
2023/06/21 04:24:04;;;;;;;14.27;12.93;;;23.10;99.90;;;;;;5035351;28;20470;-54
2023/06/21 04:26:50;;;;;;;15.50;13.48;;;23.10;99.90;;;;;;5032893;28;20048;-52
2023/06/21 04:29:40;;;;;;;16.38;13.70;;;23.10;99.90;;;;;;5020893;28;20037;-51
2023/06/21 04:32:32;;;;;;;16.90;14.20;;;23.20;99.90;;;;;;5013348;28;20018;-51
2023/06/21 04:35:18;;;;;;;14.93;13.43;;;23.20;99.90;;;;;;5014667;28;20026;-52
2023/06/21 04:38:04;;;;;;;16.85;15.20;;;23.30;99.90;;;;;;5014231;28;20026;-50
2023/06/21 04:40:52;;;;;;;15.80;13.73;;;23.30;99.90;;;;;;5020773;28;20036;-52
2023/06/21 04:43:38;;;;;;;16.00;14.27;;;23.30;99.90;;;;;;5029884;28;20037;-53
2023/06/21 04:46:27;;;;;;;18.55;14.95;;;23.40;99.90;;;;;;5034086;28;20033;-54
2023/06/21 04:49:17;;;;;;;18.73;14.40;;;23.50;99.90;;;;;;5033614;28;20112;-53
2023/06/21 04:52:03;;;;;;;19.23;14.40;;;23.50;99.90;;;;;;5033744;28;20486;-54
2023/06/21 04:54:49;;;;;;;20.55;14.98;;;23.40;99.90;;;;;;5034745;28;20025;-51
2023/06/21 04:57:35;;;;;;;16.10;14.02;;;23.30;99.90;;;;;;5033268;28;20114;-55
2023/06/21 05:00:21;;;;;;;18.73;15.75;;;23.20;99.90;;;;;;5014131;28;20116;-51
2023/06/21 05:03:07;;;;;;;17.70;14.82;;;23.10;99.90;;;;;;5014239;28;20083;-51
2023/06/21 05:05:53;;;;;;;20.23;15.70;;;23.20;99.90;;;;;;5014288;28;20037;-52
2023/06/21 05:08:40;;;;;;;17.67;15.85;;;23.40;99.90;;;;;;5014977;28;20505;-54
2023/06/21 05:11:27;;;;;;;18.27;15.48;;;23.40;99.90;;;;;;5014282;28;20053;-53
2023/06/21 05:14:13;;;;;;;18.58;16.58;;;23.40;99.90;;;;;;5014700;28;20030;-52
2023/06/21 05:16:59;;;;;;;22.83;16.33;;;23.20;99.90;;;;;;5014549;28;20033;-55
2023/06/21 05:19:45;;;;;;;18.05;15.43;;;23.10;99.90;;;;;;5030177;28;20050;-55
2023/06/21 05:22:31;;;;;;;20.05;16.13;;;23.10;99.90;;;;;;5036863;28;20605;-55
2023/06/21 05:25:18;;;;;;;19.17;15.32;;;23.10;99.90;;;;;;5033164;28;20043;-55
2023/06/21 05:28:04;;;;;;;17.75;15.85;;;23.10;99.90;;;;;;5032548;28;20504;-52
2023/06/21 05:30:50;;;;;;;17.65;15.60;;;23.30;99.90;;;;;;5034553;28;20037;-50
2023/06/21 05:33:36;;;;;;;20.38;14.90;;;23.50;99.90;;;;;;5032957;28;20026;-56
2023/06/21 05:36:22;;;;;;;17.35;15.52;;;23.50;99.90;;;;;;5032248;28;20026;-53
2023/06/21 05:39:08;;;;;;;19.35;15.68;;;23.40;99.90;;;;;;5016636;28;20041;-51
2023/06/21 05:41:54;;;;;;;17.90;15.82;;;23.30;99.90;;;;;;5021482;28;20037;-50
2023/06/21 05:44:40;;;;;;;18.52;15.90;;;23.30;99.90;;;;;;5011289;28;20030;-51
2023/06/21 05:47:26;;;;;;;17.52;15.85;;;23.50;99.90;;;;;;5012991;28;20041;-50
2023/06/21 05:50:12;;;;;;;17.35;15.45;;;23.70;99.90;;;;;;5014103;28;20026;-50
2023/06/21 05:52:58;;;;;;;22.25;15.27;;;23.80;99.90;;;;;;5021999;28;20450;-52
2023/06/21 05:55:46;;;;;;;22.33;16.63;;;24.00;99.90;;;;;;5033504;28;20538;-53
2023/06/21 05:58:32;;;;;;;16.65;14.70;;;24.10;99.90;;;;;;5032900;28;20044;-54
2023/06/21 06:01:18;;;;;;;16.50;14.88;;;24.10;99.90;;;;;;5019844;28;20560;-54
2023/06/21 06:04:04;;;;;;;15.98;14.27;;;24.10;99.90;;;;;;5024597;28;20029;-49
2023/06/21 06:06:50;;;;;;;19.30;15.18;;;24.20;99.90;;;;;;5013339;28;20065;-49
2023/06/21 06:09:35;;;;;;;17.48;15.18;;;24.00;99.90;;;;;;5018963;28;20029;-53
2023/06/21 06:12:22;;;;;;;16.90;15.27;;;23.80;99.90;;;;;;5014844;28;20053;-52
2023/06/21 06:15:08;;;;;;;16.90;15.27;;;23.90;99.90;;;;;;5024310;28;20026;-55
2023/06/21 06:17:54;;;;;;;16.67;15.18;;;24.00;99.90;;;;;;5032949;28;20037;-56
2023/06/21 06:20:41;;;;;;;17.15;15.52;;;24.00;99.90;;;;;;5032712;28;20113;-55
2023/06/21 06:23:26;;;;;;;17.30;15.43;;;23.90;99.90;;;;;;5031926;28;20091;-56
2023/06/21 06:26:12;;;;;;;18.45;14.95;;;23.80;99.90;;;;;;5031080;28;20026;-55
2023/06/21 06:28:58;;;;;;;15.20;13.63;;;24.00;99.90;;;;;;5028423;28;20044;-57
2023/06/21 06:31:44;;;;;;;16.52;14.35;;;24.20;99.90;;;;;;5022578;28;20499;-56
2023/06/21 06:34:30;;;;;;;15.02;13.45;;;24.10;99.90;;;;;;5026787;28;20017;-57
2023/06/21 06:37:16;;;;;;;14.82;13.43;;;24.10;99.90;;;;;;5020292;28;20397;-55
2023/06/21 06:40:05;;;;;;;15.45;14.05;;;24.10;99.90;;;;;;5023303;28;20053;-54
2023/06/21 06:42:51;;;;;;;14.98;13.57;;;24.10;99.90;;;;;;5023718;28;20040;-58
2023/06/21 06:45:37;;;;;;;15.85;14.40;;;24.00;99.90;;;;;;5025357;28;20026;-58
2023/06/21 06:48:24;;;;;;;14.98;13.23;;;23.80;99.90;;;;;;5022829;28;20499;-53
2023/06/21 06:51:10;;;;;;;15.05;13.55;;;24.00;99.90;;;;;;5024871;28;20029;-52
2023/06/21 06:53:56;;;;;;;15.75;14.25;;;24.20;99.90;;;;;;5020949;28;20037;-54
2023/06/21 06:56:42;;;;;;;15.23;13.93;;;24.20;99.90;;;;;;5031135;28;20043;-59
2023/06/21 06:59:28;;;;;;;15.38;13.98;;;24.10;99.90;;;;;;5021821;28;20042;-53
2023/06/21 07:02:14;;;;;;;16.13;13.98;;;24.20;99.90;;;;;;5018967;28;20438;-51
2023/06/21 07:05:00;;;;;;;16.88;14.30;;;24.20;99.90;;;;;;5024495;28;20029;-55
2023/06/21 07:07:46;;;;;;;16.90;14.70;;;24.20;99.90;;;;;;5030744;28;20022;-50
2023/06/21 07:10:31;;;;;;;16.00;13.63;;;24.20;99.90;;;;;;5028839;28;20036;-49
2023/06/21 07:13:18;;;;;;;16.13;14.63;;;24.30;99.90;;;;;;5031296;28;20113;-53
2023/06/21 07:16:04;;;;;;;15.85;14.35;;;24.40;99.90;;;;;;5024395;28;20022;-49
2023/06/21 07:18:50;;;;;;;15.73;14.20;;;24.50;99.90;;;;;;5022109;28;20033;-49
2023/06/21 07:21:36;;;;;;;16.92;15.23;;;24.60;99.90;;;;;;5027365;28;20018;-51
2023/06/21 07:24:22;;;;;;;16.10;14.38;;;24.60;99.90;;;;;;5027140;28;20486;-52
2023/06/21 07:27:08;;;;;;;16.27;14.57;;;24.40;99.90;;;;;;5024150;28;20112;-52
2023/06/21 07:29:54;;;;;;;16.40;14.75;;;24.40;99.90;;;;;;5024655;28;20049;-52
2023/06/21 07:32:40;;;;;;;15.65;14.25;;;24.10;99.90;;;;;;5038282;28;20085;-52
2023/06/21 07:35:26;;;;;;;17.08;13.60;;;24.00;99.90;;;;;;5026502;28;20372;-52
2023/06/21 07:38:12;;;;;;;14.75;13.25;;;24.10;99.90;;;;;;5034934;28;20397;-53
2023/06/21 07:40:58;;;;;;;13.98;12.68;;;24.10;99.90;;;;;;5029449;28;20025;-49
2023/06/21 07:43:44;;;;;;;14.57;13.10;;;24.10;99.90;;;;;;5035218;28;20399;-51
2023/06/21 07:46:29;;;;;;;15.50;12.88;;;24.20;99.90;;;;;;5034887;28;20025;-53
2023/06/21 07:49:15;;;;;;;15.13;13.57;;;24.40;99.90;;;;;;5034766;28;20033;-55
2023/06/21 07:52:02;;;;;;;14.52;13.13;;;24.50;99.90;;;;;;5035711;28;20091;-51
2023/06/21 07:54:49;;;;;;;14.98;12.43;;;24.60;99.90;;;;;;5031105;28;20029;-49
2023/06/21 07:57:34;;;;;;;12.48;11.10;;;24.50;99.90;;;;;;5016356;28;20034;-50
2023/06/21 08:00:21;;;;;;;13.85;11.85;;;24.60;99.90;;;;;;5020889;28;20018;-51
2023/06/21 08:03:07;;;;;;;14.55;13.02;;;24.60;99.90;;;;;;5034312;28;20109;-54
2023/06/21 08:05:53;;;;;;;13.10;11.75;;;24.60;99.90;;;;;;5035300;28;20036;-51
2023/06/21 08:08:38;;;;;;;13.55;12.30;;;24.80;99.90;;;;;;5036173;28;20150;-54
2023/06/21 08:11:24;;;;;;;11.68;10.57;;;24.70;99.90;;;;;;5030839;28;20459;-53
2023/06/21 08:14:10;;;;;;;12.88;11.68;;;24.80;99.90;;;;;;5030231;28;20041;-55
2023/06/21 08:16:56;;;;;;;12.88;11.48;;;24.80;99.90;;;;;;5030668;28;20026;-55
2023/06/21 08:19:42;;;;;;;11.80;10.70;;;25.00;99.90;;;;;;5033833;28;20498;-55
2023/06/21 08:22:28;;;;;;;12.45;11.25;;;25.20;99.90;;;;;;5029213;28;20120;-55
2023/06/21 08:25:14;;;;;;;12.20;10.85;;;25.20;99.90;;;;;;5027374;28;20025;-54
2023/06/21 08:28:00;;;;;;;11.32;10.27;;;25.20;99.90;;;;;;5027727;28;20423;-59
2023/06/21 08:30:46;;;;;;;13.90;11.32;;;25.50;99.90;;;;;;5032129;28;20041;-53
2023/06/21 08:33:32;;;;;;;12.93;10.15;;;25.30;99.90;;;;;;5034528;28;20049;-53
2023/06/21 08:36:19;;;;;;;12.15;9.73;;;25.40;99.90;;;;;;5033901;28;20037;-53
2023/06/21 08:39:05;;;;;;;11.70;10.60;;;25.50;99.80;;;;;;5033387;28;20030;-58
2023/06/21 08:41:52;;;;;;;11.80;10.60;;;25.60;99.90;;;;;;5033035;28;20044;-56
2023/06/21 08:44:38;;;;;;;10.50;9.27;;;25.60;99.90;;;;;;5030169;28;20034;-55
2023/06/21 08:47:28;;;;;;;10.38;9.38;;;25.80;99.60;;;;;;5028806;28;20029;-55
2023/06/21 08:50:17;;;;;;;11.32;10.32;;;25.80;99.10;;;;;;5021369;28;20072;-57
2023/06/21 08:53:07;;;;;;;10.60;9.50;;;25.60;99.00;;;;;;5019337;28;20022;-58
2023/06/21 08:55:53;;;;;;;10.77;9.77;;;25.40;99.60;;;;;;5023574;28;20136;-55
2023/06/21 08:58:45;;;;;;;10.73;9.77;;;25.30;99.30;;;;;;5035240;28;20071;-58
2023/06/21 09:01:45;;;;;;;11.68;10.48;;;25.20;99.70;;;;;;5028127;28;20056;-56
2023/06/21 09:04:37;;;;;;;11.15;10.05;;;25.20;99.40;;;;;;5022951;28;20029;-55
2023/06/21 09:07:24;;;;;;;10.77;9.77;;;25.40;99.50;;;;;;5035344;28;20060;-53
2023/06/21 09:10:15;;;;;;;11.98;10.13;;;25.30;99.10;;;;;;5023516;28;20036;-58
2023/06/21 09:13:03;;;;;;;10.98;9.90;;;25.40;99.60;;;;;;5032497;28;20037;-57
2023/06/21 09:15:50;;;;;;;10.98;9.88;;;25.60;98.90;;;;;;5039755;28;20135;-57
2023/06/21 09:18:39;;;;;;;11.93;10.75;;;25.40;99.20;;;;;;5033896;28;20120;-59
2023/06/21 09:21:26;;;;;;;12.82;10.68;;;25.60;99.40;;;;;;5035472;28;20429;-57
2023/06/21 09:24:12;;;;;;;9.38;8.55;;;26.00;98.70;;;;;;5033961;28;20508;-58
2023/06/21 09:26:59;;;;;;;9.65;8.73;;;26.00;97.40;;;;;;5030833;28;20022;-57
2023/06/21 09:29:45;;;;;;;9.68;8.70;;;26.10;96.90;;;;;;5027858;28;20033;-55
2023/06/21 09:32:31;;;;;;;10.05;9.02;;;26.10;96.20;;;;;;5027022;28;20034;-58
2023/06/21 09:35:17;;;;;;;10.55;8.88;;;26.10;96.30;;;;;;5024540;28;20021;-56
2023/06/21 09:38:26;;;;;;;9.77;8.88;;;26.10;96.20;;;;;;5022561;28;20022;-56
2023/06/21 09:41:12;;;;;;;9.40;8.23;;;26.30;96.40;;;;;;5028767;28;20451;-57
2023/06/21 09:43:59;;;;;;;10.15;8.32;;;26.50;95.80;;;;;;5025806;28;20033;-56
2023/06/21 09:46:47;;;;;;;10.95;7.90;;;26.50;95.40;;;;;;5026586;28;20034;-57
2023/06/21 09:49:33;;;;;;;8.80;7.32;;;26.50;94.90;;;;;;5027201;28;20025;-59
2023/06/21 09:52:22;;;;;;;10.70;7.38;;;26.60;93.80;;;;;;5029599;28;20108;-57
2023/06/21 09:55:13;;;;;;;7.82;7.03;;;26.70;93.50;;;;;;5035738;28;20109;-59
2023/06/21 09:58:00;;;;;;;7.63;6.93;;;26.80;92.90;;;;;;5034534;28;20028;-53
2023/06/21 10:00:47;;;;;;;8.98;7.90;;;26.80;93.80;;;;;;5026708;28;20105;-55
2023/06/21 10:03:33;;;;;;;9.27;8.00;;;27.10;93.30;;;;;;5025574;28;20021;-56
2023/06/21 10:06:28;;;;;;;10.00;8.20;;;27.00;93.90;;;;;;5020406;28;20025;-53
2023/06/21 10:09:14;;;;;;;11.15;8.98;;;26.80;93.70;;;;;;5024479;28;20109;-55
2023/06/21 10:12:00;;;;;;;8.57;7.30;;;26.70;94.50;;;;;;5022696;28;20529;-58
2023/06/21 10:14:45;;;;;;;8.52;7.72;;;26.70;94.80;;;;;;5026491;28;20409;-57
2023/06/21 10:17:33;;;;;;;8.70;7.47;;;26.60;93.70;;;;;;5027419;28;20125;-58
2023/06/21 10:20:22;;;;;;;9.00;8.10;;;26.60;93.80;;;;;;5023082;28;20079;-58
2023/06/21 10:23:11;;;;;;;10.80;7.50;;;26.60;93.60;;;;;;5021358;28;20052;-56
2023/06/21 10:26:00;;;;;;;8.90;7.88;;;26.60;93.90;;;;;;5024241;28;20135;-58
2023/06/21 10:28:54;;;;;;;8.82;8.02;;;26.40;94.40;;;;;;5025915;28;20041;-57
2023/06/21 10:31:44;;;;;;;8.88;8.02;;;26.50;93.90;;;;;;5032528;28;20112;-56
2023/06/21 10:34:40;;;;;;;9.55;8.65;;;26.60;93.50;;;;;;5031245;28;20033;-59
2023/06/21 10:37:33;;;;;;;8.65;7.85;;;27.00;93.50;;;;;;5030658;28;20025;-55
2023/06/21 10:40:19;;;;;;;10.52;8.07;;;26.90;93.50;;;;;;5028446;28;20026;-59
2023/06/21 10:43:06;;;;;;;8.68;7.88;;;27.10;92.30;;;;;;5035100;28;20063;-56
2023/06/21 10:45:55;;;;;;;8.88;8.07;;;27.20;92.90;;;;;;5034192;28;20037;-57
2023/06/21 10:48:41;;;;;;;12.55;8.05;;;27.10;92.80;;;;;;5031089;28;20052;-55
2023/06/21 10:51:28;;;;;;;9.40;8.50;;;27.50;92.60;;;;;;5019682;28;20145;-53
2023/06/21 10:54:16;;;;;;;8.90;8.10;;;27.60;92.20;;;;;;5020754;28;20045;-53
2023/06/21 10:57:02;;;;;;;10.27;9.38;;;27.60;92.30;;;;;;5029339;28;20033;-52
2023/06/21 10:59:48;;;;;;;11.23;8.68;;;27.60;92.50;;;;;;5032082;28;20124;-56
2023/06/21 11:02:34;;;;;;;9.50;8.70;;;27.50;92.70;;;;;;5035008;28;20040;-57
2023/06/21 11:05:25;;;;;;;10.88;9.77;;;27.40;92.60;;;;;;5031207;28;20034;-53
2023/06/21 11:08:15;;;;;;;10.00;8.90;;;27.50;92.60;;;;;;5016303;28;20029;-56
2023/06/21 11:11:01;;;;;;;8.98;8.18;;;27.40;92.30;;;;;;5017516;28;20100;-56
2023/06/21 11:13:47;;;;;;;10.18;9.27;;;27.70;92.40;;;;;;5016096;28;20026;-55
2023/06/21 11:16:38;;;;;;;9.70;8.80;;;27.70;92.30;;;;;;5016238;28;20030;-53
2023/06/21 11:19:27;;;;;;;10.50;9.40;;;27.80;92.30;;;;;;5016022;28;20042;-57
2023/06/21 11:22:15;;;;;;;10.05;9.05;;;27.90;92.10;;;;;;5016062;28;20113;-56
2023/06/21 11:25:16;;;;;;;9.95;8.95;;;28.20;91.80;;;;;;5017832;28;20038;-51
2023/06/21 11:28:23;;;;;;;9.77;8.95;;;28.40;91.50;;;;;;5032704;28;20049;-56
2023/06/21 11:31:12;;;;;;;9.57;8.68;;;28.40;91.50;;;;;;5025770;28;20490;-56
2023/06/21 11:34:00;;;;;;;10.15;8.82;;;28.20;91.40;;;;;;5035254;28;20029;-55
2023/06/21 11:36:46;;;;;;;9.88;8.90;;;28.30;91.10;;;;;;5028705;28;20673;-51
2023/06/21 11:39:31;;;;;;;10.38;9.48;;;28.00;91.40;;;;;;5015990;28;20402;-52
2023/06/21 11:42:17;;;;;;;9.77;8.82;;;28.10;91.90;;;;;;5015806;28;20026;-54
2023/06/21 11:45:23;;;;;;;9.18;8.10;;;28.20;91.70;;;;;;5029347;28;20025;-52
2023/06/21 11:48:12;;;;;;;9.63;8.07;;;28.30;91.40;;;;;;5023216;28;20021;-54
2023/06/21 11:51:09;;;;;;;9.75;8.48;;;28.40;90.60;;;;;;5031065;28;20038;-53
2023/06/21 11:53:56;;;;;;;9.07;8.23;;;28.40;90.80;;;;;;5025756;28;20058;-54
2023/06/21 11:56:43;;;;;;;8.77;7.90;;;28.50;90.60;;;;;;5032998;28;20032;-53
2023/06/21 11:59:31;;;;;;;8.50;7.70;;;28.70;90.10;;;;;;5035796;28;20079;-54
2023/06/21 12:02:20;;;;;;;11.48;8.20;;;28.70;89.10;;;;;;5035418;28;20030;-53
2023/06/21 12:05:06;;;;;;;9.23;8.32;;;28.70;90.00;;;;;;5038445;28;20030;-55
2023/06/21 12:07:52;;;;;;;9.93;7.60;;;28.90;89.50;;;;;;5050396;28;20026;-54
2023/06/21 12:10:39;;;;;;;9.27;8.38;;;28.80;89.20;;;;;;5032814;28;20033;-54
2023/06/21 12:13:26;;;;;;;8.50;7.65;;;28.90;89.70;;;;;;5014453;28;20061;-56
2023/06/21 12:16:12;;;;;;;9.43;8.52;;;28.80;89.60;;;;;;5014084;28;20053;-53
2023/06/21 12:18:58;;;;;;;9.02;8.20;;;28.60;89.10;;;;;;5015713;28;20141;-55
2023/06/21 12:21:44;;;;;;;9.18;8.27;;;28.80;88.60;;;;;;5021768;28;20044;-53
2023/06/21 12:24:31;;;;;;;9.75;8.38;;;28.70;88.90;;;;;;5034286;28;20152;-54
2023/06/21 12:27:17;;;;;;;9.90;7.88;;;28.60;89.40;;;;;;5024959;28;20056;-51
2023/06/21 12:30:04;;;;;;;8.77;7.78;;;28.70;89.60;;;;;;5047107;28;20457;-52
2023/06/21 12:32:50;;;;;;;9.30;8.40;;;28.80;89.60;;;;;;5032964;28;20037;-55
2023/06/21 12:35:37;;;;;;;10.07;8.55;;;28.80;88.40;;;;;;5015633;28;20022;-55
2023/06/21 12:38:24;;;;;;;9.32;8.43;;;29.10;88.20;;;;;;5014824;28;20052;-53
2023/06/21 12:41:18;;;;;;;9.30;8.40;;;29.30;88.50;;;;;;5013917;28;20561;-57
2023/06/21 12:44:07;;;;;;;9.07;8.27;;;29.20;86.40;;;;;;5037741;28;20034;-56
2023/06/21 12:46:54;;;;;;;9.48;8.45;;;28.80;86.80;;;;;;5035669;28;20029;-54
2023/06/21 12:49:46;;;;;;;10.63;8.63;;;28.90;86.10;;;;;;5034153;28;20127;-53
2023/06/21 12:52:32;;;;;;;9.43;8.52;;;28.90;86.40;;;;;;5034269;28;20025;-55
2023/06/21 12:55:18;;;;;;;9.52;8.63;;;29.30;83.70;;;;;;5034953;28;20018;-55
2023/06/21 12:58:04;;;;;;;9.90;8.90;;;29.60;82.00;;;;;;5031957;28;20074;-53
2023/06/21 13:00:49;;;;;;;9.93;8.93;;;29.50;80.50;;;;;;5014062;28;20033;-52
2023/06/21 13:03:35;;;;;;;9.80;8.80;;;29.50;82.20;;;;;;5014335;28;20087;-55
2023/06/21 13:06:22;;;;;;;9.45;8.45;;;29.60;82.60;;;;;;5014088;28;20448;-55
2023/06/21 13:09:09;;;;;;;10.95;8.63;;;29.60;82.60;;;;;;5014368;28;20026;-54
2023/06/21 13:11:55;;;;;;;9.68;8.35;;;29.80;82.50;;;;;;5015063;28;20029;-56
2023/06/21 13:14:41;;;;;;;9.70;8.70;;;30.00;82.00;;;;;;5015994;28;20506;-52
2023/06/21 13:17:27;;;;;;;9.88;8.98;;;29.70;82.40;;;;;;5014471;28;20026;-56
2023/06/21 13:20:12;;;;;;;10.15;8.07;;;29.70;83.60;;;;;;5015785;28;20112;-53
2023/06/21 13:22:58;;;;;;;9.00;8.10;;;29.90;82.50;;;;;;5019808;28;20032;-52
2023/06/21 13:25:44;;;;;;;9.85;8.18;;;30.20;82.20;;;;;;5012760;28;20030;-56
2023/06/21 13:28:30;;;;;;;9.55;8.25;;;30.40;82.30;;;;;;5012332;28;20052;-52
2023/06/21 13:31:17;;;;;;;10.00;8.00;;;30.30;82.70;;;;;;5021262;28;20078;-55
2023/06/21 13:34:03;;;;;;;9.38;8.48;;;30.20;82.50;;;;;;5034138;28;20018;-54
2023/06/21 13:36:49;;;;;;;9.50;8.50;;;30.20;82.50;;;;;;5029752;28;20065;-53
2023/06/21 13:39:35;;;;;;;8.93;8.02;;;30.10;80.80;;;;;;5050433;28;20037;-52
2023/06/21 13:42:21;;;;;;;10.27;7.95;;;30.00;82.10;;;;;;5051736;28;20037;-52
2023/06/21 13:45:08;;;;;;;9.02;8.13;;;30.40;80.70;;;;;;5017982;28;20133;-55
2023/06/21 13:47:54;;;;;;;8.95;8.05;;;30.20;81.20;;;;;;5029572;28;20072;-55
2023/06/21 13:50:40;;;;;;;8.88;7.97;;;30.00;81.40;;;;;;5018025;28;20033;-55
2023/06/21 13:53:27;;;;;;;9.05;8.25;;;29.80;81.10;;;;;;5027650;28;20033;-54
2023/06/21 13:56:13;;;;;;;9.15;8.27;;;29.80;80.70;;;;;;5022226;28;20035;-54
2023/06/21 13:58:59;;;;;;;11.32;7.90;;;29.80;81.80;;;;;;5026560;28;20084;-56
2023/06/21 14:01:45;;;;;;;9.55;8.38;;;29.70;81.90;;;;;;5013553;28;20025;-54
2023/06/21 14:04:31;;;;;;;8.43;7.57;;;29.80;81.80;;;;;;5013228;28;20030;-52
2023/06/21 14:07:17;;;;;;;9.27;8.30;;;29.90;81.70;;;;;;5024357;28;20092;-53
2023/06/21 14:10:04;;;;;;;9.18;8.27;;;30.00;82.10;;;;;;5012228;28;20409;-56
2023/06/21 14:12:50;;;;;;;8.85;7.95;;;30.20;82.40;;;;;;5016588;28;20387;-55
2023/06/21 14:15:36;;;;;;;9.23;8.15;;;30.20;81.60;;;;;;5014074;28;20045;-53